Terminal Aerodrome Forecast
Issued by NWS

Home | Current Version | Previous Version | Text Only | Print | Product List | Glossary Off
Versions: 1 2 3 4 5 6 7 8 9 10 11 12 13 14

000
FTUS43 KMPX 211120
TAFRWF
TAF
KRWF 211120Z 2112/2212 11006KT P6SM SCT025 BKN080
      TEMPO 2112/2114 4SM TSRA BKN025CB
     FM212100 32006KT P6SM BKN050 OVC200 PROB30 2121/2123 5SM -TSRA
      BKN040CB
     FM220300 31005KT P6SM SKC=

USA.gov is the U.S. government's official web portal to all federal, state and local government web resources and services.